Alexandria, NE (68303)

10:22 PM CDT on April 18, 2015 (GMT -0500)
Crystal Springs Campground | | Change Station
CLOSE
Current Station
Personal Weather Station
Location: Fairbury, NE
Elevation: 1424 ft
Nearby Weather Stations

Elev 1424 ft 40.13 °N, 97.21 °W | Updated 2 seconds ago

Rain
Rain
55.0 °F
Feels Like 55.0 °F
N
11.0
Wind Variable Wind from SW
Gusts 15.0 mph

Today
High -- | Low -- °F
--% Chance of Precip.
Yesterday
High -- | Low -- °F
Precip. -- in
6:47 AM 8:11 PM
New Moon, 0% visible
Pressure 29.84 in
Visibility 10.0 miles
Clouds Mostly Cloudy 6000 ft
Overcast 8000 ft
Dew Point 52 °F
Humidity 90%
Rainfall 0.11 in
Snow Depth Not available.
UV 0 out of 12
Pollen 8.10 out of 12
Air Quality Not available.
Flu Activity Local Activity
METAR KHJH 190255Z AUTO 19013KT 10SM RA BKN060 OVC080 13/10 A2984 RMK AO2 LTG DSNT NW P0001 60003 T01270102

More Conditions Fewer Conditions

Pressure 29.84 in
Visibility 10.0 miles
Clouds Mostly Cloudy 6000 ft
Overcast 8000 ft
Dew Point 52 °F
Humidity 90%
Rainfall 0.11 in
Snow Depth Not available.
UV 0 out of 12
Pollen 8.10 out of 12
Air Quality Not available.
Flu Activity Local Activity
METAR KHJH 190255Z AUTO 19013KT 10SM RA BKN060 OVC080 13/10 A2984 RMK AO2 LTG DSNT NW P0001 60003 T01270102

More Conditions Fewer Conditions

10-Day Weather Forecast

Almanac

Astronomy

Apr. 18, 2015 Rise Set
Actual Time
Civil Twilight
Nautical Twilight
Astronomical Twilight
Moon
Length of Visible Light
Length of Day
Tomorrow will be .
, % of the Moon is Illuminated

Today's Extremes

State Highs State Lows

Community

WunderPhotos

Upload Photos

1,814,693 photos uploaded!

WunderBlogs® & News

Nearby

Air Quality

  Air Quality AQ Index Pollutant
Not available.

Snow Depth

Station Depth Elevation

Earthquake Activity

City Distance Mag. Time & Date
Minimum magnitude displayed is 2.5.

Coastal Water Temperatures

Place Temperature

Stations

Nearby Weather Stations

Station Location Temp. Windchill Dew Point Humidity Wind Precip. Elev Updated Type